METAR Data
IDs: Format: Raw Decoded Include TAF

Data at: 2113 UTC 19 May 2019

KLUD 192055Z AUTO 07007KT 030V110 10SM CLR 27/13 A2992 RMK AO2 T02680134
KLUD 192035Z AUTO 06009KT 7SM CLR 27/13 A2993 RMK AO2 T02680126
KLUD 192015Z AUTO 04006KT 10SM CLR 26/14 A2993 RMK AO2 T02600139
KLUD 191955Z AUTO 02006KT 10SM CLR 26/14 A2993 RMK AO2 T02630141
KLUD 191935Z AUTO 36006KT 10SM CLR 26/14 A2993 RMK AO2 T02570143
KLUD 191915Z AUTO 36007KT 10SM CLR 26/14 A2994 RMK AO2 T02570140
KLUD 191855Z AUTO 04004KT 10SM CLR 25/14 A2994 RMK AO2 T02530139
KLUD 191835Z AUTO 01007KT 10SM CLR 25/13 A2994 RMK AO2 T02500131
KLUD 191815Z AUTO 05004KT 10SM CLR 24/12 A2995 RMK AO2 T02440123
KLUD 191755Z AUTO 04004KT 10SM CLR 24/13 A2995 RMK AO2 T02440128 10244 20150
KLUD 191735Z AUTO 35004KT 10SM CLR 24/12 A2995 RMK AO2 T02370123
KLUD 191715Z AUTO 02007KT 10SM CLR 24/12 A2995 RMK AO2 T02380121
KLUD 191655Z AUTO 02005KT 10SM CLR 24/13 A2995 RMK AO2 T02350130
KLUD 191635Z AUTO 36005KT 10SM CLR 23/12 A2995 RMK AO2 T02310122
KLUD 191615Z AUTO 04007KT 10SM CLR 23/13 A2995 RMK AO2 T02270126
KLUD 191555Z AUTO 02005KT 10SM CLR 22/12 A2994 RMK AO2 T02200119
KLUD 191535Z AUTO 36005KT 10SM CLR 22/12 A2994 RMK AO2 T02150116
KLUD 191515Z AUTO 01007KT 10SM CLR 21/11 A2993 RMK AO2 T02060113
KLUD 191455Z AUTO 01007KT 10SM CLR 20/12 A2992 RMK AO2 T02000117
KLUD 191435Z AUTO 01005KT 7SM CLR 19/12 A2991 RMK AO2 T01920117
KLUD 191415Z AUTO 02006KT 10SM CLR 19/12 A2991 RMK AO2 T01850121
KLUD 191355Z AUTO 02005KT 10SM CLR 18/12 A2989 RMK AO2 T01760121
KLUD 191335Z AUTO 36006KT 10SM CLR 17/12 A2990 RMK AO2 T01670115
KLUD 191315Z AUTO 36004KT 10SM CLR 16/11 A2989 RMK AO2 T01610112
KLUD 191255Z AUTO 35003KT 10SM CLR 15/11 A2987 RMK AO2 T01540111
KLUD 191235Z AUTO 34004KT 10SM CLR 15/11 A2986 RMK AO2 T01500107
KLUD 191215Z AUTO 35005KT 7SM CLR 15/10 A2985 RMK AO2 T01500102
KLUD 191155Z AUTO 35004KT 10SM CLR 15/10 A2984 RMK AO2 70150 T01500100 10203 20144
KLUD 191135Z AUTO 34005KT 10SM CLR 15/10 A2983 RMK AO2 T01450103
KLUD 191115Z AUTO 32004KT 10SM CLR 15/10 A2983 RMK AO2 T01470103
KLUD 191055Z AUTO 32006KT 10SM CLR 15/11 A2982 RMK AO2 T01510107
KLUD 191035Z AUTO 33005KT 10SM CLR 16/11 A2981 RMK AO2 T01560110
KLUD 191015Z AUTO 32006KT 10SM CLR 16/12 A2980 RMK AO2 T01550118
KLUD 190955Z AUTO 28004KT 10SM CLR 16/13 A2978 RMK AO2 T01640125
KLUD 190935Z AUTO 29004KT 10SM CLR 17/14 A2977 RMK AO2 T01700141
KLUD 190915Z AUTO 30003KT 3SM BR CLR 17/16 A2976 RMK AO2 T01700164
KLUD 190855Z AUTO 00000KT 5SM BR CLR 18/17 A2975 RMK AO2 T01760166
KLUD 190835Z AUTO 27006KT 7SM CLR 18/16 A2975 RMK AO2 T01820163
KLUD 190815Z AUTO 19005KT 7SM CLR 19/17 A2973 RMK AO2 T01900166
KLUD 190755Z AUTO 19006KT 7SM CLR 19/17 A2972 RMK AO2 T01930170
KLUD 190735Z AUTO 18005KT 7SM CLR 19/18 A2973 RMK AO2 T01930183
KLUD 190715Z AUTO 18006KT 3SM BR 20/19 A2973 RMK AO2 SKY OBSCURED T01960190
KLUD 190655Z AUTO 19004KT 2 1/2SM BR 20/19 A2973 RMK AO2 SKY OBSCURED VIS 1 1/2V5 T01980193
KLUD 190635Z AUTO 19004KT 1 1/4SM BR SCT001 20/20 A2972 RMK AO2 T02000195
KLUD 190615Z AUTO 25004KT 2 1/2SM BR 20/20 A2972 RMK AO2 SKY OBSCURED T02010196
KLUD 190555Z AUTO 00000KT 3/4SM BR OVC001 20/20 A2971 RMK AO2 T02040198 10237 20204 402500171
KLUD 190535Z AUTO 19004KT 3/4SM BR OVC001 21/20 A2970 RMK AO2 T02050199
KLUD 190515Z AUTO 15008KT 3SM BR 21/20 A2969 RMK AO2 SKY OBSCURED T02060198
KLUD 190455Z AUTO 15008KT 7SM CLR 21/20 A2969 RMK AO2 T02130198
KLUD 190435Z AUTO 16009KT 10SM CLR 22/19 A2969 RMK AO2 T02180193
KLUD 190415Z AUTO 16010KT 10SM CLR 22/20 A2968 RMK AO2 T02170200
KLUD 190355Z AUTO 16010KT 10SM CLR 22/20 A2968 RMK AO2 T02150197
KLUD 190335Z AUTO 16010KT 7SM CLR 21/19 A2968 RMK AO2 T02120191
KLUD 190315Z AUTO 15008KT 10SM CLR 21/20 A2967 RMK AO2 T02110198
KLUD 190255Z AUTO 15007KT 5SM BR CLR 21/20 A2967 RMK AO2 T02120200
KLUD 190235Z AUTO 16008KT 5SM BR CLR 22/20 A2966 RMK AO2 T02150204
KLUD 190215Z AUTO 15008KT 5SM BR CLR 22/20 A2966 RMK AO2 T02160203
KLUD 190155Z AUTO 15009KT 7SM CLR 22/21 A2965 RMK AO2 T02200205
KLUD 190135Z AUTO 15007KT 7SM CLR 22/20 A2965 RMK AO2 T02220203
KLUD 190115Z AUTO 15008KT 10SM CLR 23/21 A2965 RMK AO2 T02270205
KLUD 190055Z AUTO 14009KT 7SM CLR 23/21 A2965 RMK AO2 T02320205
KLUD 190035Z AUTO 15006KT 10SM CLR 24/20 A2964 RMK AO2 T02350204
KLUD 190015Z AUTO 14009KT 7SM CLR 24/20 A2963 RMK AO2 T02370203
KLUD 182355Z AUTO 15009KT 10SM CLR 24/20 A2962 RMK AO2 T02380203 10240 20176
KLUD 182335Z AUTO 15010G15KT 7SM CLR 24/20 A2962 RMK AO2 T02380204
KLUD 182315Z AUTO 17008KT 7SM CLR 24/20 A2962 RMK AO2 T02380204
KLUD 182255Z AUTO 18006KT 10SM CLR 23/20 A2962 RMK AO2 T02330201
KLUD 182235Z AUTO 14007KT 10SM SCT019 22/19 A2963 RMK AO2 T02150190
KLUD 182215Z AUTO 10005KT 7SM CLR 21/19 A2964 RMK AO2 T02130191
KLUD 182155Z AUTO 12006KT 10SM CLR 22/19 A2962 RMK AO2 T02150190
KLUD 182135Z AUTO 12008KT 10SM SCT030 SCT040 22/19 A2962 RMK AO2 T02230192
KLUD 182115Z AUTO 19005KT 7SM SCT030 BKN040 21/19 A2964 RMK AO2 T02140186
KLUD 182055Z AUTO 18005KT 7SM SCT040 21/18 A2964 RMK AO2 T02110183
KLUD 182035Z AUTO 16004KT 7SM CLR 21/18 A2963 RMK AO2 T02100180
KLUD 182015Z AUTO 16004KT 10SM CLR 20/18 A2964 RMK AO2 T02020179
KLUD 181955Z AUTO 21005KT 10SM SCT050 20/18 A2965 RMK AO2 T01960176
KLUD 181935Z AUTO 21004KT 10SM CLR 19/18 A2963 RMK AO2 T01880175
KLUD 181915Z AUTO 18006KT 10SM CLR 19/18 A2966 RMK AO2 T01880175
KLUD 181855Z AUTO 19004KT 7SM CLR 19/18 A2966 RMK AO2 T01850175
KLUD 181835Z AUTO 16008KT 10SM CLR 18/17 A2968 RMK AO2 T01810171
KLUD 181815Z AUTO 19004KT 10SM SCT012 18/17 A2966 RMK AO2 T01800167
KLUD 181755Z AUTO 20006KT 7SM -RA SCT010 SCT014 SCT020 18/16 A2967 RMK AO2 P0002 60150 T01760163 10231 20171
KLUD 181735Z AUTO 14011G17KT 10SM -RA SCT010 SCT024 SCT110 18/16 A2966 RMK AO2 P0002 T01750162
KLUD 181715Z AUTO 14015G20KT 5SM -RA SCT008 BKN015 BKN024 18/16 A2968 RMK AO2 P0001 T01750162
KLUD 181655Z AUTO 11015KT 4SM -RA BKN008 OVC015 17/17 A2971 RMK AO2 P0048 T01720165
KLUD 181635Z AUTO 04008KT 1 1/2SM RA OVC006 17/16 A2970 RMK AO2 P0045 T01720164
KLUD 181615Z AUTO 25003KT 1/2SM +RA OVC004 17/16 A2979 RMK AO2 P0028 T01710163
KLUD 181555Z AUTO 29012G18KT 1/2SM +RA BKN002 OVC005 18/17 A2979 RMK AO2 P0069 T01770165
KLUD 181535Z AUTO 16007G14KT 5SM BR BKN010 OVC015 23/21 A2974 RMK AO2 P0003 T02250213
KLUD 181515Z AUTO 15011KT 5SM -RA SCT009 BKN016 BKN060 23/21 A2972 RMK AO2 P0001 T02260213
KLUD 181455Z AUTO 16010G17KT 5SM BR SCT009 BKN012 BKN019 23/21 A2972 RMK AO2 P0024 60024 T02250213
KLUD 181435Z AUTO 15015G26KT 1 1/4SM +RA SCT006 OVC012 23/21 A2971 RMK AO2 P0013 T02250212
KLUD 181415Z AUTO 15013G18KT 7SM -RA BKN012 BKN021 BKN085 23/21 A2970 RMK AO2 P0001 T02260212
KLUD 181355Z AUTO 15014G21KT 7SM BKN012 BKN085 23/21 A2969 RMK AO2 T02300211
KLUD 181335Z AUTO 15012G17KT 7SM BKN014 23/21 A2970 RMK AO2 T02300210
KLUD 181315Z AUTO 16012G16KT 7SM BKN013 23/21 A2972 RMK AO2 T02300212
KLUD 181255Z AUTO 16012G19KT 7SM BKN013 BKN018 23/21 A2971 RMK AO2 T02290211
KLUD 181235Z AUTO 15011KT 7SM SCT014 23/21 A2969 RMK AO2 T02270210
KLUD 181215Z AUTO 15013G19KT 7SM SCT014 SCT022 23/21 A2970 RMK AO2 T02270211
KLUD 181155Z AUTO 15012G19KT 10SM SCT016 23/21 A2971 RMK AO2 T02260211 10250 20226
KLUD 181135Z AUTO 16016G20KT 7SM SCT012 SCT026 SCT050 23/21 A2971 RMK AO2 T02260210
KLUD 181115Z AUTO 16015G22KT 7SM SCT009 BKN014 BKN027 23/21 A2971 RMK AO2 T02260211
KLUD 181055Z AUTO 13013G22KT 7SM SCT012 SCT019 SCT027 23/21 A2969 RMK AO2 T02300210
KLUD 181035Z AUTO 15013G18KT 10SM SCT007 SCT017 23/21 A2971 RMK AO2 T02300210
KLUD 181015Z AUTO 16012G20KT 7SM BKN017 BKN023 24/21 A2973 RMK AO2 T02350209
KLUD 180955Z AUTO 14012G16KT 7SM SCT017 SCT023 24/21 A2971 RMK AO2 T02370207
KLUD 180935Z AUTO 16013G18KT 7SM SCT017 SCT030 SCT065 24/21 A2973 RMK AO2 T02360207
KLUD 180915Z AUTO 16012KT 10SM SCT017 SCT030 SCT110 24/21 A2973 RMK AO2 T02370207